sensor_id;sensor_type;location;lat;lon;timestamp;P1;durP1;ratioP1;P2;durP2;ratioP2
11691;SDS011;33659;42.672;23.354;2023-01-10T00:00:37;18.03;;;10.37;;
11691;SDS011;33659;42.672;23.354;2023-01-10T00:03:04;19.67;;;10.53;;
11691;SDS011;33659;42.672;23.354;2023-01-10T00:05:33;19.60;;;10.93;;
11691;SDS011;33659;42.672;23.354;2023-01-10T00:08:00;18.17;;;9.97;;
11691;SDS011;33659;42.672;23.354;2023-01-10T00:10:27;23.67;;;11.43;;
11691;SDS011;33659;42.672;23.354;2023-01-10T00:12:54;18.53;;;9.80;;
11691;SDS011;33659;42.672;23.354;2023-01-10T00:15:40;16.77;;;10.17;;
11691;SDS011;33659;42.672;23.354;2023-01-10T00:18:06;15.07;;;9.00;;
11691;SDS011;33659;42.672;23.354;2023-01-10T00:20:33;18.43;;;10.50;;
11691;SDS011;33659;42.672;23.354;2023-01-10T00:23:00;16.97;;;9.47;;
11691;SDS011;33659;42.672;23.354;2023-01-10T00:25:27;15.73;;;9.77;;
11691;SDS011;33659;42.672;23.354;2023-01-10T00:27:54;15.53;;;9.03;;
11691;SDS011;33659;42.672;23.354;2023-01-10T00:30:26;20.40;;;11.20;;
11691;SDS011;33659;42.672;23.354;2023-01-10T00:32:55;14.73;;;8.47;;
11691;SDS011;33659;42.672;23.354;2023-01-10T00:35:21;19.37;;;10.30;;
11691;SDS011;33659;42.672;23.354;2023-01-10T00:37:48;16.97;;;7.97;;
11691;SDS011;33659;42.672;23.354;2023-01-10T00:40:16;15.20;;;8.40;;
11691;SDS011;33659;42.672;23.354;2023-01-10T00:42:42;14.50;;;8.60;;
11691;SDS011;33659;42.672;23.354;2023-01-10T00:45:26;17.43;;;9.17;;
11691;SDS011;33659;42.672;23.354;2023-01-10T00:47:54;15.70;;;10.07;;
11691;SDS011;33659;42.672;23.354;2023-01-10T00:50:21;16.30;;;8.90;;
11691;SDS011;33659;42.672;23.354;2023-01-10T00:52:48;15.77;;;9.50;;
11691;SDS011;33659;42.672;23.354;2023-01-10T00:55:14;13.97;;;8.97;;
11691;SDS011;33659;42.672;23.354;2023-01-10T00:57:41;16.57;;;9.90;;
11691;SDS011;33659;42.672;23.354;2023-01-10T01:00:08;16.57;;;9.17;;
11691;SDS011;33659;42.672;23.354;2023-01-10T01:02:36;19.30;;;9.20;;
11691;SDS011;33659;42.672;23.354;2023-01-10T01:05:05;15.33;;;9.17;;
11691;SDS011;33659;42.672;23.354;2023-01-10T01:07:32;16.17;;;9.17;;
11691;SDS011;33659;42.672;23.354;2023-01-10T01:09:58;13.70;;;8.93;;
11691;SDS011;33659;42.672;23.354;2023-01-10T01:12:42;18.90;;;10.53;;
11691;SDS011;33659;42.672;23.354;2023-01-10T01:15:09;16.23;;;9.47;;
11691;SDS011;33659;42.672;23.354;2023-01-10T01:17:36;14.63;;;9.30;;
11691;SDS011;33659;42.672;23.354;2023-01-10T01:20:05;18.10;;;10.03;;
11691;SDS011;33659;42.672;23.354;2023-01-10T01:22:33;16.40;;;9.70;;
11691;SDS011;33659;42.672;23.354;2023-01-10T01:25:00;13.10;;;7.80;;
11691;SDS011;33659;42.672;23.354;2023-01-10T01:27:28;16.63;;;9.20;;
11691;SDS011;33659;42.672;23.354;2023-01-10T01:29:55;13.20;;;8.63;;
11691;SDS011;33659;42.672;23.354;2023-01-10T01:32:22;18.33;;;10.40;;
11691;SDS011;33659;42.672;23.354;2023-01-10T01:34:49;14.83;;;8.47;;
11691;SDS011;33659;42.672;23.354;2023-01-10T01:37:17;17.33;;;9.70;;
11691;SDS011;33659;42.672;23.354;2023-01-10T01:39:44;16.07;;;9.03;;
11691;SDS011;33659;42.672;23.354;2023-01-10T01:42:16;18.73;;;9.80;;
11691;SDS011;33659;42.672;23.354;2023-01-10T01:47:51;14.77;;;9.33;;
11691;SDS011;33659;42.672;23.354;2023-01-10T01:50:23;16.93;;;9.57;;
11691;SDS011;33659;42.672;23.354;2023-01-10T01:52:56;15.83;;;9.13;;
11691;SDS011;33659;42.672;23.354;2023-01-10T01:55:24;16.20;;;8.60;;
11691;SDS011;33659;42.672;23.354;2023-01-10T01:57:56;16.83;;;9.53;;
11691;SDS011;33659;42.672;23.354;2023-01-10T02:00:28;15.73;;;9.67;;
11691;SDS011;33659;42.672;23.354;2023-01-10T02:02:55;14.93;;;9.07;;
11691;SDS011;33659;42.672;23.354;2023-01-10T02:05:24;12.87;;;8.30;;
11691;SDS011;33659;42.672;23.354;2023-01-10T02:07:53;15.83;;;9.70;;
11691;SDS011;33659;42.672;23.354;2023-01-10T02:10:26;16.17;;;8.87;;
11691;SDS011;33659;42.672;23.354;2023-01-10T02:13:00;17.43;;;9.20;;
11691;SDS011;33659;42.672;23.354;2023-01-10T02:15:30;14.37;;;9.33;;
11691;SDS011;33659;42.672;23.354;2023-01-10T02:17:56;15.83;;;8.77;;
11691;SDS011;33659;42.672;23.354;2023-01-10T02:20:27;13.07;;;8.27;;
11691;SDS011;33659;42.672;23.354;2023-01-10T02:23:24;16.80;;;9.87;;
11691;SDS011;33659;42.672;23.354;2023-01-10T02:32:36;16.23;;;9.10;;
11691;SDS011;33659;42.672;23.354;2023-01-10T02:37:57;13.97;;;8.73;;
11691;SDS011;33659;42.672;23.354;2023-01-10T02:40:31;15.27;;;9.77;;
11691;SDS011;33659;42.672;23.354;2023-01-10T02:43:05;15.47;;;7.83;;
11691;SDS011;33659;42.672;23.354;2023-01-10T02:45:36;16.83;;;9.23;;
11691;SDS011;33659;42.672;23.354;2023-01-10T02:48:07;14.97;;;8.33;;
11691;SDS011;33659;42.672;23.354;2023-01-10T02:50:42;13.80;;;8.50;;
11691;SDS011;33659;42.672;23.354;2023-01-10T02:53:17;12.63;;;9.33;;
11691;SDS011;33659;42.672;23.354;2023-01-10T02:55:55;13.13;;;8.37;;
11691;SDS011;33659;42.672;23.354;2023-01-10T02:58:35;14.03;;;7.90;;
11691;SDS011;33659;42.672;23.354;2023-01-10T03:01:18;12.97;;;8.33;;
11691;SDS011;33659;42.672;23.354;2023-01-10T03:03:59;12.40;;;7.83;;
11691;SDS011;33659;42.672;23.354;2023-01-10T03:06:35;12.97;;;8.40;;
11691;SDS011;33659;42.672;23.354;2023-01-10T03:09:09;11.30;;;7.90;;
11691;SDS011;33659;42.672;23.354;2023-01-10T03:11:41;11.57;;;7.37;;
11691;SDS011;33659;42.672;23.354;2023-01-10T03:14:16;11.80;;;7.53;;
11691;SDS011;33659;42.672;23.354;2023-01-10T03:16:50;12.27;;;7.60;;
11691;SDS011;33659;42.672;23.354;2023-01-10T03:19:22;12.90;;;8.60;;
11691;SDS011;33659;42.672;23.354;2023-01-10T03:21:52;13.53;;;7.73;;
11691;SDS011;33659;42.672;23.354;2023-01-10T03:24:24;11.67;;;7.83;;
11691;SDS011;33659;42.672;23.354;2023-01-10T03:26:56;13.27;;;8.23;;
11691;SDS011;33659;42.672;23.354;2023-01-10T03:29:28;13.10;;;8.37;;
11691;SDS011;33659;42.672;23.354;2023-01-10T03:31:59;13.27;;;8.70;;
11691;SDS011;33659;42.672;23.354;2023-01-10T03:34:31;11.73;;;8.10;;
11691;SDS011;33659;42.672;23.354;2023-01-10T03:37:00;11.80;;;8.03;;
11691;SDS011;33659;42.672;23.354;2023-01-10T03:39:38;12.00;;;7.87;;
11691;SDS011;33659;42.672;23.354;2023-01-10T03:42:12;13.20;;;7.87;;
11691;SDS011;33659;42.672;23.354;2023-01-10T03:44:48;11.80;;;8.13;;
11691;SDS011;33659;42.672;23.354;2023-01-10T03:47:21;12.70;;;8.07;;
11691;SDS011;33659;42.672;23.354;2023-01-10T03:49:54;11.47;;;8.37;;
11691;SDS011;33659;42.672;23.354;2023-01-10T03:52:24;13.97;;;9.13;;
11691;SDS011;33659;42.672;23.354;2023-01-10T03:54:51;14.00;;;8.00;;
11691;SDS011;33659;42.672;23.354;2023-01-10T03:57:19;12.73;;;8.53;;
11691;SDS011;33659;42.672;23.354;2023-01-10T03:59:48;15.20;;;9.10;;
11691;SDS011;33659;42.672;23.354;2023-01-10T04:02:17;12.57;;;9.37;;
11691;SDS011;33659;42.672;23.354;2023-01-10T04:04:44;12.53;;;7.97;;
11691;SDS011;33659;42.672;23.354;2023-01-10T04:07:12;14.17;;;8.63;;
11691;SDS011;33659;42.672;23.354;2023-01-10T04:09:38;13.30;;;8.07;;
11691;SDS011;33659;42.672;23.354;2023-01-10T04:12:05;14.13;;;8.83;;
11691;SDS011;33659;42.672;23.354;2023-01-10T04:14:32;11.37;;;8.13;;
11691;SDS011;33659;42.672;23.354;2023-01-10T04:16:58;12.83;;;8.20;;
11691;SDS011;33659;42.672;23.354;2023-01-10T04:19:25;12.77;;;8.43;;
11691;SDS011;33659;42.672;23.354;2023-01-10T04:21:52;13.77;;;7.37;;
11691;SDS011;33659;42.672;23.354;2023-01-10T04:24:20;11.97;;;7.97;;
11691;SDS011;33659;42.672;23.354;2023-01-10T04:26:47;13.77;;;7.57;;
11691;SDS011;33659;42.672;23.354;2023-01-10T04:29:13;13.47;;;7.80;;
11691;SDS011;33659;42.672;23.354;2023-01-10T04:31:40;12.73;;;8.57;;
11691;SDS011;33659;42.672;23.354;2023-01-10T04:34:07;12.87;;;8.33;;
11691;SDS011;33659;42.672;23.354;2023-01-10T04:36:34;13.53;;;8.53;;
11691;SDS011;33659;42.672;23.354;2023-01-10T04:39:01;13.60;;;9.00;;
11691;SDS011;33659;42.672;23.354;2023-01-10T04:41:29;15.90;;;9.83;;
11691;SDS011;33659;42.672;23.354;2023-01-10T04:43:56;16.73;;;10.07;;
11691;SDS011;33659;42.672;23.354;2023-01-10T04:46:23;15.93;;;8.70;;
11691;SDS011;33659;42.672;23.354;2023-01-10T04:48:49;20.33;;;10.13;;
11691;SDS011;33659;42.672;23.354;2023-01-10T04:51:16;14.70;;;9.07;;
11691;SDS011;33659;42.672;23.354;2023-01-10T04:53:43;12.20;;;8.80;;
11691;SDS011;33659;42.672;23.354;2023-01-10T04:56:15;14.63;;;9.30;;
11691;SDS011;33659;42.672;23.354;2023-01-10T04:58:45;13.37;;;9.57;;
11691;SDS011;33659;42.672;23.354;2023-01-10T05:01:15;18.53;;;10.00;;
11691;SDS011;33659;42.672;23.354;2023-01-10T05:03:45;14.57;;;8.73;;
11691;SDS011;33659;42.672;23.354;2023-01-10T05:06:12;14.00;;;7.13;;
11691;SDS011;33659;42.672;23.354;2023-01-10T05:08:39;14.70;;;8.40;;
11691;SDS011;33659;42.672;23.354;2023-01-10T05:11:05;13.97;;;8.37;;
11691;SDS011;33659;42.672;23.354;2023-01-10T05:13:32;11.10;;;7.20;;
11691;SDS011;33659;42.672;23.354;2023-01-10T05:16:00;15.87;;;8.50;;
11691;SDS011;33659;42.672;23.354;2023-01-10T05:18:27;14.03;;;8.90;;
11691;SDS011;33659;42.672;23.354;2023-01-10T05:20:58;17.07;;;8.57;;
11691;SDS011;33659;42.672;23.354;2023-01-10T05:23:25;13.80;;;8.67;;
11691;SDS011;33659;42.672;23.354;2023-01-10T05:25:51;14.53;;;8.53;;
11691;SDS011;33659;42.672;23.354;2023-01-10T05:28:18;14.97;;;8.50;;
11691;SDS011;33659;42.672;23.354;2023-01-10T05:30:45;16.03;;;8.60;;
11691;SDS011;33659;42.672;23.354;2023-01-10T05:33:13;14.27;;;8.43;;
11691;SDS011;33659;42.672;23.354;2023-01-10T05:35:39;12.63;;;8.37;;
11691;SDS011;33659;42.672;23.354;2023-01-10T05:38:06;13.77;;;8.23;;
11691;SDS011;33659;42.672;23.354;2023-01-10T05:40:33;13.33;;;8.50;;
11691;SDS011;33659;42.672;23.354;2023-01-10T05:42:59;16.50;;;9.63;;
11691;SDS011;33659;42.672;23.354;2023-01-10T05:45:26;12.63;;;6.70;;
11691;SDS011;33659;42.672;23.354;2023-01-10T05:47:52;12.23;;;8.07;;
11691;SDS011;33659;42.672;23.354;2023-01-10T05:50:21;14.80;;;8.70;;
11691;SDS011;33659;42.672;23.354;2023-01-10T05:52:47;13.30;;;8.63;;
11691;SDS011;33659;42.672;23.354;2023-01-10T05:55:14;12.17;;;8.80;;
11691;SDS011;33659;42.672;23.354;2023-01-10T05:57:41;13.40;;;8.83;;
11691;SDS011;33659;42.672;23.354;2023-01-10T06:00:08;11.30;;;7.87;;
11691;SDS011;33659;42.672;23.354;2023-01-10T06:02:36;11.70;;;8.23;;
11691;SDS011;33659;42.672;23.354;2023-01-10T06:05:02;12.30;;;8.03;;
11691;SDS011;33659;42.672;23.354;2023-01-10T06:07:31;12.57;;;7.73;;
11691;SDS011;33659;42.672;23.354;2023-01-10T06:09:57;12.70;;;8.07;;
11691;SDS011;33659;42.672;23.354;2023-01-10T06:12:24;14.03;;;8.10;;
11691;SDS011;33659;42.672;23.354;2023-01-10T06:14:51;11.80;;;7.67;;
11691;SDS011;33659;42.672;23.354;2023-01-10T06:17:17;11.87;;;7.63;;
11691;SDS011;33659;42.672;23.354;2023-01-10T06:19:44;12.00;;;7.70;;
11691;SDS011;33659;42.672;23.354;2023-01-10T06:22:10;9.70;;;7.10;;
11691;SDS011;33659;42.672;23.354;2023-01-10T06:24:39;13.03;;;8.23;;
11691;SDS011;33659;42.672;23.354;2023-01-10T06:27:06;14.50;;;8.60;;
11691;SDS011;33659;42.672;23.354;2023-01-10T06:29:33;11.60;;;7.77;;
11691;SDS011;33659;42.672;23.354;2023-01-10T06:31:59;13.43;;;7.90;;
11691;SDS011;33659;42.672;23.354;2023-01-10T06:34:26;11.40;;;7.93;;
11691;SDS011;33659;42.672;23.354;2023-01-10T06:36:53;12.33;;;8.07;;
11691;SDS011;33659;42.672;23.354;2023-01-10T06:39:19;13.63;;;7.87;;
11691;SDS011;33659;42.672;23.354;2023-01-10T06:41:47;12.00;;;8.07;;
11691;SDS011;33659;42.672;23.354;2023-01-10T06:44:14;14.20;;;8.77;;
11691;SDS011;33659;42.672;23.354;2023-01-10T06:46:41;14.40;;;8.50;;
11691;SDS011;33659;42.672;23.354;2023-01-10T06:49:07;12.23;;;8.10;;
11691;SDS011;33659;42.672;23.354;2023-01-10T06:51:34;12.80;;;8.60;;
11691;SDS011;33659;42.672;23.354;2023-01-10T06:54:01;13.33;;;7.80;;
11691;SDS011;33659;42.672;23.354;2023-01-10T06:56:27;11.97;;;8.33;;
11691;SDS011;33659;42.672;23.354;2023-01-10T06:58:55;15.17;;;7.97;;
11691;SDS011;33659;42.672;23.354;2023-01-10T07:01:22;18.77;;;8.03;;
11691;SDS011;33659;42.672;23.354;2023-01-10T07:03:48;14.93;;;8.70;;
11691;SDS011;33659;42.672;23.354;2023-01-10T07:06:15;13.77;;;8.30;;
11691;SDS011;33659;42.672;23.354;2023-01-10T07:08:42;13.53;;;8.03;;
11691;SDS011;33659;42.672;23.354;2023-01-10T07:11:10;12.80;;;7.87;;
11691;SDS011;33659;42.672;23.354;2023-01-10T07:13:37;12.47;;;8.33;;
11691;SDS011;33659;42.672;23.354;2023-01-10T07:16:07;12.73;;;7.97;;
11691;SDS011;33659;42.672;23.354;2023-01-10T07:18:36;13.97;;;8.00;;
11691;SDS011;33659;42.672;23.354;2023-01-10T07:21:04;14.37;;;8.40;;
11691;SDS011;33659;42.672;23.354;2023-01-10T07:23:31;14.30;;;8.80;;
11691;SDS011;33659;42.672;23.354;2023-01-10T07:25:57;12.17;;;8.37;;
11691;SDS011;33659;42.672;23.354;2023-01-10T07:28:27;13.33;;;7.53;;
11691;SDS011;33659;42.672;23.354;2023-01-10T07:30:53;15.37;;;8.60;;
11691;SDS011;33659;42.672;23.354;2023-01-10T07:33:25;15.63;;;8.43;;
11691;SDS011;33659;42.672;23.354;2023-01-10T07:35:52;13.93;;;8.20;;
11691;SDS011;33659;42.672;23.354;2023-01-10T07:38:18;12.20;;;8.30;;
11691;SDS011;33659;42.672;23.354;2023-01-10T07:40:45;16.40;;;9.00;;
11691;SDS011;33659;42.672;23.354;2023-01-10T07:43:12;13.47;;;8.80;;
11691;SDS011;33659;42.672;23.354;2023-01-10T07:45:38;13.97;;;8.20;;
11691;SDS011;33659;42.672;23.354;2023-01-10T07:48:05;14.13;;;8.73;;
11691;SDS011;33659;42.672;23.354;2023-01-10T07:50:33;12.13;;;8.17;;
11691;SDS011;33659;42.672;23.354;2023-01-10T07:53:02;11.93;;;8.23;;
11691;SDS011;33659;42.672;23.354;2023-01-10T07:55:29;14.37;;;8.57;;
11691;SDS011;33659;42.672;23.354;2023-01-10T07:57:58;15.73;;;8.77;;
11691;SDS011;33659;42.672;23.354;2023-01-10T08:00:25;11.90;;;7.63;;
11691;SDS011;33659;42.672;23.354;2023-01-10T08:02:52;13.13;;;7.57;;
11691;SDS011;33659;42.672;23.354;2023-01-10T08:05:19;12.23;;;8.13;;
11691;SDS011;33659;42.672;23.354;2023-01-10T08:07:48;11.67;;;8.63;;
11691;SDS011;33659;42.672;23.354;2023-01-10T08:10:15;18.03;;;8.93;;
11691;SDS011;33659;42.672;23.354;2023-01-10T08:12:42;16.37;;;9.63;;
11691;SDS011;33659;42.672;23.354;2023-01-10T08:15:09;15.50;;;8.03;;
11691;SDS011;33659;42.672;23.354;2023-01-10T08:17:36;13.03;;;8.47;;
11691;SDS011;33659;42.672;23.354;2023-01-10T08:20:02;15.47;;;9.87;;
11691;SDS011;33659;42.672;23.354;2023-01-10T08:22:29;15.63;;;9.60;;
11691;SDS011;33659;42.672;23.354;2023-01-10T08:24:57;14.53;;;9.80;;
11691;SDS011;33659;42.672;23.354;2023-01-10T08:27:24;19.30;;;10.90;;
11691;SDS011;33659;42.672;23.354;2023-01-10T08:29:51;17.47;;;11.00;;
11691;SDS011;33659;42.672;23.354;2023-01-10T08:32:17;16.33;;;10.57;;
11691;SDS011;33659;42.672;23.354;2023-01-10T08:34:44;18.07;;;10.57;;
11691;SDS011;33659;42.672;23.354;2023-01-10T08:37:11;18.17;;;10.03;;
11691;SDS011;33659;42.672;23.354;2023-01-10T08:39:38;15.73;;;9.93;;
11691;SDS011;33659;42.672;23.354;2023-01-10T08:42:06;17.53;;;10.57;;
11691;SDS011;33659;42.672;23.354;2023-01-10T08:44:33;19.43;;;11.57;;
11691;SDS011;33659;42.672;23.354;2023-01-10T08:47:00;17.60;;;11.37;;
11691;SDS011;33659;42.672;23.354;2023-01-10T08:49:27;18.83;;;11.77;;
11691;SDS011;33659;42.672;23.354;2023-01-10T08:51:54;21.87;;;12.00;;
11691;SDS011;33659;42.672;23.354;2023-01-10T08:54:20;21.03;;;12.07;;
11691;SDS011;33659;42.672;23.354;2023-01-10T08:56:47;20.83;;;11.87;;
11691;SDS011;33659;42.672;23.354;2023-01-10T08:59:15;19.63;;;11.80;;
11691;SDS011;33659;42.672;23.354;2023-01-10T09:01:42;19.70;;;11.47;;
11691;SDS011;33659;42.672;23.354;2023-01-10T09:04:09;19.77;;;12.23;;
11691;SDS011;33659;42.672;23.354;2023-01-10T09:06:36;23.87;;;12.00;;
11691;SDS011;33659;42.672;23.354;2023-01-10T09:09:03;20.97;;;12.27;;
11691;SDS011;33659;42.672;23.354;2023-01-10T09:11:30;19.20;;;10.83;;
11691;SDS011;33659;42.672;23.354;2023-01-10T09:13:56;20.07;;;12.63;;
11691;SDS011;33659;42.672;23.354;2023-01-10T09:16:24;17.77;;;11.93;;
11691;SDS011;33659;42.672;23.354;2023-01-10T09:18:51;21.90;;;12.80;;
11691;SDS011;33659;42.672;23.354;2023-01-10T09:21:19;18.57;;;11.70;;
11691;SDS011;33659;42.672;23.354;2023-01-10T09:23:46;23.90;;;13.27;;
11691;SDS011;33659;42.672;23.354;2023-01-10T09:26:13;19.33;;;12.30;;
11691;SDS011;33659;42.672;23.354;2023-01-10T09:28:39;19.07;;;11.77;;
11691;SDS011;33659;42.672;23.354;2023-01-10T09:31:06;22.67;;;11.97;;
11691;SDS011;33659;42.672;23.354;2023-01-10T09:33:34;22.40;;;13.50;;
11691;SDS011;33659;42.672;23.354;2023-01-10T09:36:01;20.67;;;12.13;;
11691;SDS011;33659;42.672;23.354;2023-01-10T09:38:28;21.43;;;11.83;;
11691;SDS011;33659;42.672;23.354;2023-01-10T09:40:58;21.27;;;12.87;;
11691;SDS011;33659;42.672;23.354;2023-01-10T09:43:45;19.40;;;12.47;;
11691;SDS011;33659;42.672;23.354;2023-01-10T09:46:22;19.00;;;11.77;;
11691;SDS011;33659;42.672;23.354;2023-01-10T09:48:58;20.50;;;13.53;;
11691;SDS011;33659;42.672;23.354;2023-01-10T09:51:33;21.13;;;13.17;;
11691;SDS011;33659;42.672;23.354;2023-01-10T09:54:02;21.90;;;12.07;;
11691;SDS011;33659;42.672;23.354;2023-01-10T09:56:32;23.27;;;12.97;;
11691;SDS011;33659;42.672;23.354;2023-01-10T09:58:59;19.77;;;13.03;;
11691;SDS011;33659;42.672;23.354;2023-01-10T10:01:28;24.43;;;13.20;;
11691;SDS011;33659;42.672;23.354;2023-01-10T10:04:04;21.53;;;14.07;;
11691;SDS011;33659;42.672;23.354;2023-01-10T10:06:40;24.63;;;15.47;;
11691;SDS011;33659;42.672;23.354;2023-01-10T10:09:07;33.13;;;18.00;;
11691;SDS011;33659;42.672;23.354;2023-01-10T10:14:45;37.97;;;21.97;;
11691;SDS011;33659;42.672;23.354;2023-01-10T10:17:24;34.43;;;19.73;;
11691;SDS011;33659;42.672;23.354;2023-01-10T10:20:05;37.10;;;18.07;;
11691;SDS011;33659;42.672;23.354;2023-01-10T10:22:46;28.20;;;17.67;;
11691;SDS011;33659;42.672;23.354;2023-01-10T10:25:24;28.60;;;17.83;;
11691;SDS011;33659;42.672;23.354;2023-01-10T10:28:10;32.20;;;17.83;;
11691;SDS011;33659;42.672;23.354;2023-01-10T10:30:49;36.90;;;17.83;;
11691;SDS011;33659;42.672;23.354;2023-01-10T10:33:31;29.20;;;16.27;;
11691;SDS011;33659;42.672;23.354;2023-01-10T10:36:10;26.60;;;16.00;;
11691;SDS011;33659;42.672;23.354;2023-01-10T10:38:42;29.73;;;17.70;;
11691;SDS011;33659;42.672;23.354;2023-01-10T10:41:13;26.93;;;16.20;;
11691;SDS011;33659;42.672;23.354;2023-01-10T10:43:44;27.60;;;16.97;;
11691;SDS011;33659;42.672;23.354;2023-01-10T10:46:13;29.80;;;17.40;;
11691;SDS011;33659;42.672;23.354;2023-01-10T10:48:44;30.57;;;17.17;;
11691;SDS011;33659;42.672;23.354;2023-01-10T10:51:20;31.73;;;17.37;;
11691;SDS011;33659;42.672;23.354;2023-01-10T10:53:51;28.03;;;15.07;;
11691;SDS011;33659;42.672;23.354;2023-01-10T10:56:20;29.73;;;16.83;;
11691;SDS011;33659;42.672;23.354;2023-01-10T10:58:50;30.93;;;16.70;;
11691;SDS011;33659;42.672;23.354;2023-01-10T11:01:19;28.20;;;16.90;;
11691;SDS011;33659;42.672;23.354;2023-01-10T11:03:48;31.40;;;17.77;;
11691;SDS011;33659;42.672;23.354;2023-01-10T11:06:20;26.73;;;16.53;;
11691;SDS011;33659;42.672;23.354;2023-01-10T11:08:51;30.77;;;17.63;;
11691;SDS011;33659;42.672;23.354;2023-01-10T11:11:23;30.37;;;16.97;;
11691;SDS011;33659;42.672;23.354;2023-01-10T11:13:54;27.43;;;16.73;;
11691;SDS011;33659;42.672;23.354;2023-01-10T11:16:23;29.37;;;17.47;;
11691;SDS011;33659;42.672;23.354;2023-01-10T11:19:08;32.27;;;19.37;;
11691;SDS011;33659;42.672;23.354;2023-01-10T11:21:48;35.37;;;18.87;;
11691;SDS011;33659;42.672;23.354;2023-01-10T11:24:19;36.93;;;19.93;;
11691;SDS011;33659;42.672;23.354;2023-01-10T11:26:48;30.43;;;18.77;;
11691;SDS011;33659;42.672;23.354;2023-01-10T11:29:17;30.27;;;17.97;;
11691;SDS011;33659;42.672;23.354;2023-01-10T11:31:47;29.73;;;17.77;;
11691;SDS011;33659;42.672;23.354;2023-01-10T11:34:19;29.73;;;17.03;;
11691;SDS011;33659;42.672;23.354;2023-01-10T11:36:54;29.47;;;17.13;;
11691;SDS011;33659;42.672;23.354;2023-01-10T11:39:23;29.30;;;17.43;;
11691;SDS011;33659;42.672;23.354;2023-01-10T11:41:50;28.87;;;16.57;;
11691;SDS011;33659;42.672;23.354;2023-01-10T11:44:20;29.47;;;16.43;;
11691;SDS011;33659;42.672;23.354;2023-01-10T11:46:50;23.97;;;14.93;;
11691;SDS011;33659;42.672;23.354;2023-01-10T11:49:23;29.90;;;16.33;;
11691;SDS011;33659;42.672;23.354;2023-01-10T11:51:57;28.93;;;16.17;;
11691;SDS011;33659;42.672;23.354;2023-01-10T11:54:28;24.90;;;14.37;;
11691;SDS011;33659;42.672;23.354;2023-01-10T11:56:57;23.90;;;14.97;;
11691;SDS011;33659;42.672;23.354;2023-01-10T11:59:27;25.10;;;14.87;;
11691;SDS011;33659;42.672;23.354;2023-01-10T12:01:59;26.60;;;15.37;;
11691;SDS011;33659;42.672;23.354;2023-01-10T12:04:29;22.97;;;13.73;;
11691;SDS011;33659;42.672;23.354;2023-01-10T12:07:00;24.07;;;13.97;;
11691;SDS011;33659;42.672;23.354;2023-01-10T12:09:33;24.93;;;13.87;;
11691;SDS011;33659;42.672;23.354;2023-01-10T12:12:05;25.50;;;15.23;;
11691;SDS011;33659;42.672;23.354;2023-01-10T12:14:41;25.13;;;15.40;;
11691;SDS011;33659;42.672;23.354;2023-01-10T12:17:09;25.37;;;15.70;;
11691;SDS011;33659;42.672;23.354;2023-01-10T12:19:38;25.03;;;15.67;;
11691;SDS011;33659;42.672;23.354;2023-01-10T12:22:06;26.87;;;16.77;;
11691;SDS011;33659;42.672;23.354;2023-01-10T12:24:37;25.37;;;15.10;;
11691;SDS011;33659;42.672;23.354;2023-01-10T12:27:09;24.00;;;14.40;;
11691;SDS011;33659;42.672;23.354;2023-01-10T12:29:40;24.23;;;14.80;;
11691;SDS011;33659;42.672;23.354;2023-01-10T12:32:14;27.17;;;15.33;;
11691;SDS011;33659;42.672;23.354;2023-01-10T12:34:46;26.10;;;14.13;;
11691;SDS011;33659;42.672;23.354;2023-01-10T12:37:22;21.23;;;13.77;;
11691;SDS011;33659;42.672;23.354;2023-01-10T12:39:58;22.80;;;13.40;;
11691;SDS011;33659;42.672;23.354;2023-01-10T12:42:31;22.67;;;15.00;;
11691;SDS011;33659;42.672;23.354;2023-01-10T12:45:25;22.47;;;13.37;;
11691;SDS011;33659;42.672;23.354;2023-01-10T12:47:58;21.27;;;14.57;;
11691;SDS011;33659;42.672;23.354;2023-01-10T12:50:28;23.60;;;14.37;;
11691;SDS011;33659;42.672;23.354;2023-01-10T12:53:02;22.37;;;13.97;;
11691;SDS011;33659;42.672;23.354;2023-01-10T12:55:33;20.57;;;12.90;;
11691;SDS011;33659;42.672;23.354;2023-01-10T12:58:04;23.73;;;13.17;;
11691;SDS011;33659;42.672;23.354;2023-01-10T13:00:35;21.83;;;11.83;;
11691;SDS011;33659;42.672;23.354;2023-01-10T13:03:09;17.93;;;12.43;;
11691;SDS011;33659;42.672;23.354;2023-01-10T13:05:39;18.50;;;11.90;;
11691;SDS011;33659;42.672;23.354;2023-01-10T13:08:09;17.87;;;11.40;;
11691;SDS011;33659;42.672;23.354;2023-01-10T13:10:40;18.97;;;12.83;;
11691;SDS011;33659;42.672;23.354;2023-01-10T13:13:10;22.20;;;13.60;;
11691;SDS011;33659;42.672;23.354;2023-01-10T13:15:42;19.63;;;13.40;;
11691;SDS011;33659;42.672;23.354;2023-01-10T13:18:15;22.53;;;14.47;;
11691;SDS011;33659;42.672;23.354;2023-01-10T13:20:45;22.43;;;13.93;;
11691;SDS011;33659;42.672;23.354;2023-01-10T13:23:27;23.10;;;14.77;;
11691;SDS011;33659;42.672;23.354;2023-01-10T13:26:01;26.77;;;13.43;;
11691;SDS011;33659;42.672;23.354;2023-01-10T13:28:33;19.90;;;13.33;;
11691;SDS011;33659;42.672;23.354;2023-01-10T13:31:03;20.90;;;13.10;;
11691;SDS011;33659;42.672;23.354;2023-01-10T13:33:32;16.67;;;12.57;;
11691;SDS011;33659;42.672;23.354;2023-01-10T13:36:08;19.17;;;13.80;;
11691;SDS011;33659;42.672;23.354;2023-01-10T13:38:44;21.17;;;13.57;;
11691;SDS011;33659;42.672;23.354;2023-01-10T13:41:15;22.23;;;13.13;;
11691;SDS011;33659;42.672;23.354;2023-01-10T13:44:02;21.33;;;13.70;;
11691;SDS011;33659;42.672;23.354;2023-01-10T13:46:37;20.60;;;14.20;;
11691;SDS011;33659;42.672;23.354;2023-01-10T13:52:27;20.83;;;13.67;;
11691;SDS011;33659;42.672;23.354;2023-01-10T13:54:57;20.10;;;12.70;;
11691;SDS011;33659;42.672;23.354;2023-01-10T14:00:25;15.97;;;10.90;;
11691;SDS011;33659;42.672;23.354;2023-01-10T14:06:17;17.43;;;12.97;;
11691;SDS011;33659;42.672;23.354;2023-01-10T14:08:57;14.60;;;10.97;;
11691;SDS011;33659;42.672;23.354;2023-01-10T14:11:27;15.20;;;10.17;;
11691;SDS011;33659;42.672;23.354;2023-01-10T14:13:59;16.97;;;10.83;;
11691;SDS011;33659;42.672;23.354;2023-01-10T14:16:27;13.50;;;9.87;;
11691;SDS011;33659;42.672;23.354;2023-01-10T14:18:58;16.60;;;10.50;;
11691;SDS011;33659;42.672;23.354;2023-01-10T14:21:27;12.77;;;7.83;;
11691;SDS011;33659;42.672;23.354;2023-01-10T14:23:55;11.23;;;7.77;;
11691;SDS011;33659;42.672;23.354;2023-01-10T14:26:27;7.53;;;6.43;;
11691;SDS011;33659;42.672;23.354;2023-01-10T14:28:58;6.63;;;5.33;;
11691;SDS011;33659;42.672;23.354;2023-01-10T14:31:26;9.73;;;6.33;;
11691;SDS011;33659;42.672;23.354;2023-01-10T14:33:53;7.57;;;5.43;;
11691;SDS011;33659;42.672;23.354;2023-01-10T14:36:21;10.63;;;5.10;;
11691;SDS011;33659;42.672;23.354;2023-01-10T14:38:51;5.27;;;4.63;;
11691;SDS011;33659;42.672;23.354;2023-01-10T14:41:24;5.60;;;4.20;;
11691;SDS011;33659;42.672;23.354;2023-01-10T14:43:59;6.20;;;4.20;;
11691;SDS011;33659;42.672;23.354;2023-01-10T14:46:28;5.80;;;4.40;;
11691;SDS011;33659;42.672;23.354;2023-01-10T14:49:15;6.27;;;4.63;;
11691;SDS011;33659;42.672;23.354;2023-01-10T14:51:47;8.30;;;5.10;;
11691;SDS011;33659;42.672;23.354;2023-01-10T14:54:15;10.77;;;6.40;;
11691;SDS011;33659;42.672;23.354;2023-01-10T14:56:45;6.60;;;4.67;;